Latest Weather Observations for Merimbula

IDN60801

Issued at 6:32 pm EST Saturday 30 May 2015 (issued every 30 minutes, with the page automatically refreshed every 10 minutes)

About weather observations | Map of weather stations | Latest weather observations for NSW | Other Formats
Station Details ID: 069147 Name: MERIMBULA AIRPORT AWS Lat: -36.91 Lon: 149.90 Height: 1.5 m
Data from the previous 72 hours. | See also: Recent months at Merimbula
Date/Time
EST
Temp
°C
App
Temp
°C
Dew
Point
Rel
Hum
%
Delta-T
°C
Wind Press
QNH
hPa
Press
MSL
hPa
Rain
since 9 am
mm
Dir
 
Spd
km/h
Gust
km/h
Spd
kts
Gust
kts
30/06:30pm 10.4 7.2 6.9 79 1.6 WNW 13 17 7 9 1016.7 1016.7 0.0
30/06:00pm 10.8 7.4 7.7 81 1.5 NW 15 19 8 10 1016.5 1016.5 0.0
30/05:30pm 11.3 9.1 8.0 80 1.6 NNW 9 17 5 9 1016.2 1016.2 0.0
30/05:00pm 12.4 10.2 7.7 73 2.3 NW 9 13 5 7 1016.0 1016.0 0.0
30/04:30pm 15.5 14.4 6.8 56 4.3 NNW 2 7 1 4 1015.5 1015.5 0.0
30/04:00pm 16.3 14.1 6.2 51 4.9 ENE 7 9 4 5 1015.1 1015.1 0.0
30/03:30pm 16.7 14.5 6.2 50 5.1 NE 7 13 4 7 1014.9 1014.9 0.0
30/03:00pm 17.1 14.4 5.4 46 5.6 NE 9 15 5 8 1015.0 1015.0 0.0
30/02:30pm 17.9 16.1 5.2 43 6.1 NE 4 11 2 6 1015.1 1015.1 0.0
30/02:00pm 18.2 15.5 3.7 38 6.8 NW 7 11 4 6 1015.5 1015.5 0.0
30/01:30pm 18.2 15.0 3.3 37 6.9 W 9 13 5 7 1016.0 1016.0 0.0
30/01:00pm 18.2 14.5 4.4 40 6.5 W 13 20 7 11 1016.5 1016.5 0.0
30/12:30pm 17.6 13.9 4.5 42 6.2 WNW 13 17 7 9 1017.0 1017.0 0.0
30/12:00pm 16.7 13.0 4.4 44 5.8 WSW 13 20 7 11 1017.9 1017.9 0.0
30/11:30am 16.0 11.1 4.1 45 5.5 W 19 28 10 15 1018.7 1018.7 0.0
30/11:00am 15.5 10.6 4.2 47 5.2 W 19 28 10 15 1019.5 1019.5 0.0
30/10:30am 14.5 10.8 4.2 50 4.7 W 13 20 7 11 1020.0 1020.0 0.0
30/10:00am 14.1 10.1 4.9 54 4.3 WNW 15 20 8 11 1020.2 1020.2 0.0
30/09:30am 12.6 8.9 4.6 58 3.7 W 13 17 7 9 1020.3 1020.3 0.0
30/09:00am 9.9 6.9 4.1 67 2.5 W 9 17 5 9 1020.6 1020.6 0.0
30/08:30am 8.9 5.8 3.5 69 2.3 WNW 9 17 5 9 1020.5 1020.5 0.0
30/08:00am 8.3 5.3 4.1 75 1.8 NW 9 15 5 8 1020.6 1020.6 0.0
30/07:58am 8.2 5.2 3.9 74 1.9 WNW 9 17 5 9 1020.6 1020.6 0.0
30/07:45am 8.3 4.1 3.6 72 2.0 WNW 15 20 8 11 1020.6 1020.6 0.0
30/07:44am 8.3 4.0 3.4 71 2.1 WNW 15 20 8 11 1020.6 1020.6 0.0
30/07:30am 7.9 3.7 3.6 74 1.8 WNW 15 20 8 11 1020.7 1020.7 0.0
30/07:29am 7.9 3.7 3.6 74 1.8 WNW 15 20 8 11 1020.7 1020.7 0.0
30/07:24am 7.7 3.5 3.7 76 1.7 WNW 15 20 8 11 1020.7 1020.7 0.0
30/07:04am 7.4 3.5 5.4 87 0.9 WNW 15 19 8 10 1020.6 1020.6 0.0
30/07:00am 7.2 2.9 5.2 87 0.9 NW 17 19 9 10 1020.6 1020.6 0.0
30/06:30am 5.5 3.4 3.7 88 0.8 W 4 11 2 6 1020.7 1020.7 0.0
30/06:00am 7.1 4.0 5.7 91 0.6 NW 11 15 6 8 1020.8 1020.8 0.0
30/05:30am 6.7 4.0 5.7 93 0.4 WNW 9 15 5 8 1020.9 1020.9 0.0
30/05:00am 5.5 4.2 4.3 92 0.5 CALM 0 0 0 0 1020.8 1020.8 0.0
30/04:30am 6.2 5.1 5.0 92 0.5 CALM 0 0 0 0 1020.9 1020.9 0.0
30/04:00am 6.5 5.4 5.0 90 0.7 CALM 0 0 0 0 1021.1 1021.1 0.0
30/03:30am 7.9 7.1 6.7 92 0.6 CALM 0 0 0 0 1021.4 1021.4 0.0
30/03:00am 8.3 5.9 7.1 92 0.6 NW 9 11 5 6 1021.6 1021.6 0.0
30/02:30am 8.0 7.3 6.8 92 0.6 CALM 0 0 0 0 1021.8 1021.8 0.0
30/02:00am 8.1 7.3 6.7 91 0.6 CALM 0 0 0 0 1022.3 1022.3 0.0
30/01:30am 8.2 7.5 7.0 92 0.6 CALM 0 0 0 0 1022.4 1022.4 0.0
30/01:00am 8.0 6.8 6.6 91 0.6 W 2 6 1 3 1022.5 1022.5 0.0
30/12:30am 8.4 6.5 6.7 89 0.8 W 6 11 3 6 1022.4 1022.4 0.0
30/12:00am 9.0 6.7 7.3 89 0.8 NW 9 13 5 7 1022.4 1022.4 0.0
 
Date/Time
EST
Temp
°C
App
Temp
°C
Dew
Point
Rel
Hum
%
Delta-T
°C
Wind Press
QNH
hPa
Press
MSL
hPa
Rain
since 9 am
mm
Dir
 
Spd
km/h
Gust
km/h
Spd
kts
Gust
kts
29/11:30pm 9.2 6.5 7.3 88 0.9 NW 11 13 6 7 1022.7 1022.7 0.0
29/11:00pm 9.6 8.6 7.4 86 1.0 W 2 11 1 6 1022.7 1022.7 0.0
29/10:30pm 10.1 8.3 7.9 86 1.1 NW 7 11 4 6 1022.8 1022.8 0.0
29/10:00pm 10.5 9.3 8.1 85 1.2 WNW 4 9 2 5 1022.9 1022.9 0.0
29/09:30pm 11.2 10.8 8.4 83 1.4 CALM 0 0 0 0 1022.9 1022.9 0.0
29/09:00pm 11.4 11.0 8.4 82 1.5 CALM 0 0 0 0 1022.9 1022.9 0.0
29/08:30pm 11.5 11.1 8.2 80 1.6 CALM 0 0 0 0 1022.7 1022.7 0.0
29/08:00pm 11.7 11.3 8.4 80 1.6 CALM 0 0 0 0 1022.6 1022.6 0.0
29/07:30pm 12.1 11.7 8.2 77 1.9 CALM 0 0 0 0 1022.5 1022.5 0.0
29/07:00pm 12.8 12.4 8.1 73 2.3 CALM 0 0 0 0 1022.1 1022.1 0.0
29/06:30pm 12.9 12.2 6.9 67 2.9 CALM 0 0 0 0 1021.7 1021.7 0.0
29/06:00pm 12.7 12.0 7.0 68 2.7 CALM 0 0 0 0 1021.4 1021.4 0.0
29/05:30pm 13.2 12.6 7.6 69 2.7 CALM 0 0 0 0 1021.0 1021.0 0.0
29/05:00pm 13.3 12.6 6.9 65 3.1 CALM 0 0 0 0 1020.7 1020.7 0.0
29/04:30pm 14.0 12.1 6.6 61 3.6 S 6 7 3 4 1020.4 1020.4 0.0
29/04:00pm 14.8 11.4 6.1 56 4.2 S 13 17 7 9 1020.1 1020.1 0.0
29/03:30pm 15.4 12.9 6.7 56 4.2 SSE 9 15 5 8 1020.0 1020.0 0.0
29/03:00pm 16.2 12.9 6.6 53 4.7 SSE 13 17 7 9 1019.7 1019.7 0.0
29/02:30pm 17.1 14.3 6.9 51 5.1 SSE 11 19 6 10 1019.4 1019.4 0.0
29/02:00pm 17.5 14.1 7.5 52 5.0 S 15 24 8 13 1019.1 1019.1 0.0
29/01:30pm 17.2 13.7 7.3 52 5.0 SSW 15 24 8 13 1019.1 1019.1 0.0
29/01:00pm 17.0 13.7 7.9 55 4.6 SSW 15 22 8 12 1019.2 1019.2 0.0
29/12:30pm 16.8 13.1 8.0 56 4.5 S 17 24 9 13 1019.4 1019.4 0.0
29/12:00pm 16.6 12.9 8.1 57 4.3 S 17 26 9 14 1019.6 1019.6 0.0
29/11:30am 16.4 12.4 8.1 58 4.2 SSW 19 32 10 17 1019.7 1019.7 0.0
29/11:00am 16.1 12.5 8.3 60 3.9 SSW 17 28 9 15 1019.9 1019.9 0.0
29/10:30am 15.7 12.1 8.4 62 3.7 SSW 17 22 9 12 1020.0 1020.0 0.0
29/10:00am 15.6 12.9 8.8 64 3.5 SW 13 20 7 11 1019.9 1019.9 0.0
29/09:30am 14.7 12.3 8.6 67 3.1 SW 11 20 6 11 1019.9 1019.9 0.0
29/09:00am 12.8 12.7 9.3 79 1.8 CALM 0 11 0 6 1019.9 1019.9 0.0
29/08:30am 11.0 10.9 9.6 91 0.7 CALM 0 0 0 0 1019.6 1019.6 0.0
29/08:00am 9.9 9.6 8.7 92 0.6 CALM 0 0 0 0 1019.0 1019.0 0.0
29/07:30am 9.6 9.1 8.0 90 0.8 CALM 0 0 0 0 1018.5 1018.5 0.0
29/07:00am 9.9 9.4 7.7 86 1.0 CALM 0 0 0 0 1018.3 1018.3 0.0
29/06:30am 11.1 10.8 8.5 84 1.3 CALM 0 0 0 0 1018.0 1018.0 0.0
29/06:00am 11.3 9.2 8.3 82 1.5 SSE 9 13 5 7 1017.4 1017.4 0.0
29/05:30am 11.2 8.3 8.2 82 1.5 SSW 13 19 7 10 1016.7 1016.7 0.0
29/05:00am 11.3 9.2 9.7 90 0.8 NW 11 13 6 7 1016.3 1016.3 0.0
29/04:30am 9.6 9.2 8.2 91 0.7 CALM 0 0 0 0 1016.0 1016.0 0.0
29/04:00am 10.1 9.7 8.4 89 0.8 CALM 0 0 0 0 1016.0 1016.0 0.0
29/03:30am 11.2 11.0 8.9 86 1.1 CALM 0 0 0 0 1015.7 1015.7 0.0
29/03:00am 12.0 12.0 9.9 87 1.1 CALM 0 0 0 0 1015.8 1015.8 0.0
29/02:30am 12.0 11.9 9.4 84 1.3 CALM 0 0 0 0 1015.7 1015.7 0.0
29/02:00am 12.1 12.0 9.5 84 1.3 CALM 0 0 0 0 1015.6 1015.6 0.0
29/01:30am 11.9 11.8 9.6 86 1.2 CALM 0 0 0 0 1015.6 1015.6 0.0
29/01:00am 11.8 11.8 9.9 88 1.0 CALM 0 0 0 0 1015.9 1015.9 0.0
29/12:30am 11.8 11.8 9.9 88 1.0 CALM 0 0 0 0 1015.5 1015.5 0.0
29/12:00am 11.7 11.7 9.9 89 0.9 CALM 0 0 0 0 1016.1 1016.1 0.0
 
Date/Time
EST
Temp
°C
App
Temp
°C
Dew
Point
Rel
Hum
%
Delta-T
°C
Wind Press
QNH
hPa
Press
MSL
hPa
Rain
since 9 am
mm
Dir
 
Spd
km/h
Gust
km/h
Spd
kts
Gust
kts
28/11:30pm 11.8 11.8 9.7 87 1.1 CALM 0 0 0 0 1016.3 1016.3 0.0
28/11:00pm 12.3 12.4 10.0 86 1.2 CALM 0 0 0 0 1016.1 1016.1 0.0
28/10:30pm 12.1 11.8 10.2 88 1.0 WSW 2 7 1 4 1016.1 1016.1 0.0
28/10:00pm 11.5 11.2 10.1 91 0.7 W 2 9 1 5 1016.4 1016.4 0.0
28/09:30pm 11.7 10.8 10.6 93 0.6 SSW 6 9 3 5 1016.9 1016.9 0.0
28/09:00pm 11.2 11.2 9.9 92 0.7 CALM 0 0 0 0 1016.8 1016.8 0.0
28/08:30pm 11.4 10.2 10.3 93 0.6 SSW 7 9 4 5 1016.8 1016.8 0.0
28/08:00pm 11.2 10.5 9.9 92 0.7 SW 4 7 2 4 1017.0 1017.0 0.0
28/07:30pm 11.2 9.8 9.6 90 0.8 SW 7 9 4 5 1017.2 1017.2 0.0
28/07:00pm 12.2 11.2 10.3 88 1.0 SSW 6 9 3 5 1017.3 1017.3 0.0
28/06:30pm 13.0 12.1 11.4 90 0.8 NW 7 9 4 5 1016.9 1016.9 0.0
28/06:00pm 12.9 12.7 10.6 86 1.2 NW 2 9 1 5 1016.8 1016.8 0.0
28/05:30pm 14.1 14.0 10.7 80 1.8 W 2 7 1 4 1016.6 1016.6 0.0
28/05:00pm 15.8 16.0 10.6 71 2.7 CALM 0 0 0 0 1016.9 1016.9 0.0
28/04:30pm 18.2 16.8 11.0 63 3.9 NNE 9 15 5 8 1016.7 1016.7 0.0
28/04:00pm 19.5 19.1 11.0 58 4.6 NE 4 11 2 6 1016.8 1016.8 0.0
28/03:30pm 20.4 19.2 10.2 52 5.5 NNE 7 11 4 6 1016.9 1016.9 0.0
28/03:00pm 20.1 18.6 10.5 54 5.2 NNE 9 15 5 8 1016.9 1016.9 0.0
28/02:30pm 20.2 18.7 11.9 59 4.6 NNE 11 17 6 9 1017.0 1017.0 0.0
28/02:00pm 20.5 19.2 11.4 56 5.0 NNE 9 13 5 7 1017.3 1017.3 0.0
28/01:30pm 21.7 19.9 9.3 45 6.6 NW 9 13 5 7 1017.5 1017.5 0.0
28/01:00pm 20.5 20.9 11.2 55 5.1 CALM 0 0 0 0 1017.9 1017.9 0.0
28/12:30pm 20.9 20.3 10.4 51 5.7 E 4 11 2 6 1018.2 1018.2 0.0
28/12:00pm 20.8 19.2 8.8 46 6.3 NNW 7 11 4 6 1018.8 1018.8 0.0
28/11:30am 20.2 17.8 8.5 47 6.1 NW 11 15 6 8 1019.4 1019.4 0.0
28/11:00am 20.1 18.4 9.7 51 5.5 NW 9 13 5 7 1020.1 1020.1 0.0
28/10:30am 18.4 18.1 8.7 53 5.0 CALM 0 0 0 0 1020.6 1020.6 0.0
28/10:00am 17.2 17.4 10.6 65 3.5 CALM 0 0 0 0 1020.7 1020.7 0.0
28/09:30am 15.9 15.8 9.6 66 3.3 CALM 0 0 0 0 1021.0 1021.0 0.0
28/09:00am 13.5 12.5 9.0 74 2.3 SW 4 9 2 5 1020.9 1020.9 0.0
28/08:30am 11.1 9.5 8.7 85 1.2 SW 7 9 4 5 1020.9 1020.9 0.0
28/08:00am 9.6 8.0 8.8 95 0.4 SW 7 11 4 6 1020.8 1020.8 0.0
28/07:30am 7.8 5.4 7.1 95 0.3 SW 9 11 5 6 1021.0 1021.0 0.0
28/07:00am 7.2 4.7 6.5 95 0.3 SW 9 11 5 6 1020.7 1020.7 0.0
28/06:30am 6.9 6.0 6.0 94 0.4 CALM 0 0 0 0 1020.6 1020.6 0.0
28/06:00am 7.0 5.7 5.9 93 0.5 SW 2 6 1 3 1020.2 1020.2 0.0
28/05:30am 7.8 5.8 7.1 95 0.3 WNW 7 11 4 6 1020.1 1020.1 0.0
28/05:00am 7.7 5.8 6.6 93 0.5 W 6 7 3 4 1020.1 1020.1 0.0
28/04:30am 8.3 7.2 6.8 90 0.7 W 2 7 1 4 1020.3 1020.3 0.0
28/04:00am 9.1 7.3 7.9 92 0.6 WNW 7 11 4 6 1020.2 1020.2 0.0
28/03:30am 9.3 7.1 7.9 91 0.7 NW 9 13 5 7 1020.1 1020.1 0.0
28/03:00am 9.9 7.5 8.5 91 0.7 NW 11 13 6 7 1020.1 1020.1 0.0
28/02:30am 9.8 8.2 8.6 92 0.6 NW 7 15 4 8 1020.4 1020.4 0.0
28/02:00am 9.9 8.2 8.5 91 0.7 WNW 7 13 4 7 1020.7 1020.7 0.0
28/01:30am 9.8 9.0 8.1 89 0.8 WNW 2 9 1 5 1020.6 1020.6 0.0
28/01:00am 10.3 9.3 8.7 90 0.8 NW 4 9 2 5 1020.5 1020.5 0.0
28/12:30am 10.3 10.0 8.6 89 0.8 CALM 0 0 0 0 1020.6 1020.6 0.0
28/12:00am 10.6 10.4 9.0 90 0.8 CALM 0 0 0 0 1020.7 1020.7 0.0
 
Date/Time
EST
Temp
°C
App
Temp
°C
Dew
Point
Rel
Hum
%
Delta-T
°C
Wind Press
QNH
hPa
Press
MSL
hPa
Rain
since 9 am
mm
Dir
 
Spd
km/h
Gust
km/h
Spd
kts
Gust
kts
27/11:30pm 10.0 9.7 8.6 91 0.7 CALM 0 0 0 0 1020.9 1020.9 0.0
27/11:00pm 9.9 9.6 8.5 91 0.7 CALM 0 0 0 0 1021.0 1021.0 0.0
27/10:30pm 9.9 9.6 8.5 91 0.7 CALM 0 0 0 0 1020.9 1020.9 0.0
27/10:00pm 9.7 9.3 8.1 90 0.8 CALM 0 0 0 0 1020.9 1020.9 0.0
27/09:30pm 10.4 10.0 8.3 87 1.0 CALM 0 0 0 0 1021.0 1021.0 0.0
27/09:00pm 10.8 10.6 9.2 90 0.8 CALM 0 0 0 0 1021.0 1021.0 0.0
27/08:30pm 10.8 10.6 9.2 90 0.8 CALM 0 0 0 0 1021.1 1021.1 0.0
27/08:00pm 10.7 10.5 9.1 90 0.8 CALM 0 6 0 3 1021.0 1021.0 0.0
27/07:30pm 10.8 9.9 9.4 91 0.7 NW 4 9 2 5 1020.9 1020.9 0.0
27/07:00pm 10.3 9.9 8.1 86 1.1 CALM 0 0 0 0 1020.9 1020.9 0.0

Other Formats:

Comma delimited format used in spreadsheet applications
http://www.bom.gov.au/fwo/IDN60801/IDN60801.95929.axf

JavaScript Object Notation format (JSON) in row-major order
http://www.bom.gov.au/fwo/IDN60801/IDN60801.95929.json